< < Back
Terminal Aerodrome Forecast


Current Version              Previous Versions:   1  2  3  4  5  6  7  8  9  

Terminal Aerodrome Forecast

277
FTUS42 KGSP 291720
TAFHKY
TAF
KHKY 291720Z 2918/3018 28005KT P6SM OVC050
     FM300000 34005KT P6SM SCT060=

Latest METAR

697
SAUS70 KWBC 301400 RRJ
MTRHKY
METAR KHKY 301353Z 00000KT 10SM CLR 11/06 A3009 RMK AO2 SLP176
T01060056


USA.gov is the U.S. government's official web portal to all federal, state and local government web resources and services.